createdAt,value
2019-04-19T00:00:13.829Z,1021.88
2019-04-19T00:00:40.415Z,1021.85
2019-04-19T00:01:11.096Z,1021.83
2019-04-19T00:01:44.708Z,1021.87
2019-04-19T00:02:11.904Z,1021.88
2019-04-19T00:02:43.537Z,1021.85
2019-04-19T00:03:10.674Z,1021.87
2019-04-19T00:03:41.855Z,1021.88
2019-04-19T00:04:14.912Z,1021.89
2019-04-19T00:04:46.870Z,1021.87
2019-04-19T00:05:09.568Z,1021.88
2019-04-19T00:05:41.297Z,1021.86
2019-04-19T00:06:15.044Z,1021.93
2019-04-19T00:06:42.393Z,1021.91
2019-04-19T00:07:16.025Z,1021.87
2019-04-19T00:07:46.442Z,1021.89
2019-04-19T00:08:28.551Z,1021.86
2019-04-19T00:08:59.841Z,1021.87
2019-04-19T00:09:25.935Z,1021.85
2019-04-19T00:09:52.100Z,1021.87
2019-04-19T00:10:24.777Z,1021.88
2019-04-19T00:10:51.822Z,1021.91
2019-04-19T00:11:22.975Z,1021.91
2019-04-19T00:11:58.014Z,1021.88
2019-04-19T00:12:28.651Z,1021.87
2019-04-19T00:12:53.268Z,1021.9
2019-04-19T00:13:17.661Z,1021.91
2019-04-19T00:13:45.034Z,1021.93
2019-04-19T00:14:13.197Z,1021.9
2019-04-19T00:14:42.833Z,1021.91
2019-04-19T00:15:11.752Z,1021.88
2019-04-19T00:15:41.462Z,1021.89
2019-04-19T00:16:10.897Z,1021.9
2019-04-19T00:16:40.504Z,1021.92
2019-04-19T00:17:12.190Z,1021.87
2019-04-19T00:17:39.964Z,1021.87
2019-04-19T00:18:13.497Z,1021.87
2019-04-19T00:18:43.539Z,1021.86
2019-04-19T00:19:55.404Z,1021.86
2019-04-19T00:20:42.913Z,1021.86
2019-04-19T00:20:55.449Z,1021.82
2019-04-19T00:21:27.071Z,1021.87
2019-04-19T00:22:03.223Z,1021.82
2019-04-19T00:22:26.335Z,1021.8
2019-04-19T00:22:52.209Z,1021.81
2019-04-19T00:23:21.318Z,1021.81
2019-04-19T00:23:45.619Z,1021.8
2019-04-19T00:24:12.081Z,1021.84
2019-04-19T00:24:41.663Z,1021.83
2019-04-19T00:25:11.294Z,1021.83
2019-04-19T00:25:40.664Z,1021.78
2019-04-19T00:26:08.450Z,1021.83
2019-04-19T00:26:37.944Z,1021.83
2019-04-19T00:27:06.098Z,1021.81
2019-04-19T00:27:43.301Z,1021.86
2019-04-19T00:28:07.049Z,1021.79
2019-04-19T00:28:43.926Z,1021.79
2019-04-19T00:29:16.398Z,1021.83
2019-04-19T00:29:44.463Z,1021.81
2019-04-19T00:30:17.784Z,1021.82
2019-04-19T00:30:45.113Z,1021.84
2019-04-19T00:31:20.159Z,1021.82
2019-04-19T00:31:47.617Z,1021.84
2019-04-19T00:32:23.952Z,1021.8
2019-04-19T00:32:55.847Z,1021.8
2019-04-19T00:33:17.746Z,1021.82
2019-04-19T00:33:43.294Z,1021.85
2019-04-19T00:34:10.286Z,1021.84
2019-04-19T00:34:39.845Z,1021.82
2019-04-19T00:35:09.483Z,1021.84
2019-04-19T00:35:38.921Z,1021.82
2019-04-19T00:36:08.278Z,1021.85
2019-04-19T00:36:38.288Z,1021.81
2019-04-19T00:37:05.721Z,1021.86
2019-04-19T00:37:34.043Z,1021.83
2019-04-19T00:38:08.176Z,1021.83
2019-04-19T00:38:42.372Z,1021.82
2019-04-19T00:39:18.348Z,1021.82
2019-04-19T00:39:47.750Z,1021.83
2019-04-19T00:40:19.779Z,1021.8
2019-04-19T00:40:45.790Z,1021.82
2019-04-19T00:41:22.727Z,1021.83
2019-04-19T00:41:56.564Z,1021.82
2019-04-19T00:42:24.556Z,1021.78
2019-04-19T00:42:47.828Z,1021.81
2019-04-19T00:43:25.056Z,1021.81
2019-04-19T00:43:53.279Z,1021.78
2019-04-19T00:44:31.709Z,1021.83
2019-04-19T00:44:56.537Z,1021.82
2019-04-19T00:45:26.076Z,1021.79
2019-04-19T00:46:00.575Z,1021.85
2019-04-19T00:46:28.999Z,1021.84
2019-04-19T00:47:01.281Z,1021.79
2019-04-19T00:47:28.117Z,1021.86
2019-04-19T00:47:55.798Z,1021.82
2019-04-19T00:48:29.483Z,1021.84
2019-04-19T00:48:58.025Z,1021.83
2019-04-19T00:49:22.849Z,1021.87
2019-04-19T00:49:56.603Z,1021.84
2019-04-19T00:50:23.358Z,1021.83
2019-04-19T00:50:59.658Z,1021.88
2019-04-19T00:51:26.234Z,1021.86
2019-04-19T00:51:59.685Z,1021.83
2019-04-19T00:52:36.529Z,1021.84
2019-04-19T00:53:02.632Z,1021.83
2019-04-19T00:53:28.196Z,1021.88
2019-04-19T00:53:59.669Z,1021.82
2019-04-19T00:54:24.804Z,1021.87
2019-04-19T00:55:01.048Z,1021.82
2019-04-19T00:55:25.726Z,1021.86
2019-04-19T00:55:59.624Z,1021.82
2019-04-19T00:56:31.143Z,1021.85
2019-04-19T00:56:56.929Z,1021.82
2019-04-19T00:57:29.899Z,1021.84
2019-04-19T00:57:58.613Z,1021.83
2019-04-19T00:58:26.270Z,1021.82
2019-04-19T00:59:00.626Z,1021.83
2019-04-19T00:59:24.901Z,1021.8
2019-04-19T00:59:56.796Z,1021.81
2019-04-19T01:00:30.849Z,1021.82
2019-04-19T01:00:57.193Z,1021.78
2019-04-19T01:01:29.602Z,1021.82
2019-04-19T01:02:03.072Z,1021.79
2019-04-19T01:02:28.197Z,1021.83
2019-04-19T01:02:59.837Z,1021.8
2019-04-19T01:03:34.248Z,1021.77
2019-04-19T01:03:57.567Z,1021.79
2019-04-19T01:04:29.864Z,1021.83
2019-04-19T01:05:02.739Z,1021.83
2019-04-19T01:05:30.692Z,1021.8
2019-04-19T01:06:03.503Z,1021.82
2019-04-19T01:06:34.294Z,1021.81
2019-04-19T01:07:00.814Z,1021.83
2019-04-19T01:07:33.099Z,1021.84
2019-04-19T01:07:59.943Z,1021.83
2019-04-19T01:08:29.423Z,1021.85
2019-04-19T01:09:13.772Z,1021.85
2019-04-19T01:09:41.981Z,1021.82
2019-04-19T01:10:14.617Z,1021.86
2019-04-19T01:10:43.629Z,1021.85
2019-04-19T01:11:17.869Z,1021.87
2019-04-19T01:11:45.907Z,1021.85
2019-04-19T01:12:14.757Z,1021.9
2019-04-19T01:12:47.675Z,1021.86
2019-04-19T01:13:12.746Z,1021.86
2019-04-19T01:13:43.810Z,1021.85
2019-04-19T01:14:16.875Z,1021.86
2019-04-19T01:14:43.548Z,1021.87
2019-04-19T01:15:18.592Z,1021.89
2019-04-19T01:15:50.912Z,1021.87
2019-04-19T01:16:18.523Z,1021.92
2019-04-19T01:16:50.606Z,1021.89
2019-04-19T01:17:19.214Z,1021.9
2019-04-19T01:17:53.801Z,1021.91
2019-04-19T01:18:20.107Z,1021.91
2019-04-19T01:18:47.133Z,1021.89
2019-04-19T01:19:10.971Z,1021.88
2019-04-19T01:19:38.631Z,1021.87
2019-04-19T01:20:07.387Z,1021.89
2019-04-19T01:20:37.279Z,1021.9
2019-04-19T01:21:04.953Z,1021.91
2019-04-19T01:21:34.309Z,1021.91
2019-04-19T01:22:08.050Z,1021.94
2019-04-19T01:22:34.935Z,1021.89
2019-04-19T01:23:08.833Z,1021.91
2019-04-19T01:23:39.242Z,1021.91
2019-04-19T01:24:06.763Z,1021.95
2019-04-19T01:24:39.325Z,1021.93
2019-04-19T01:25:10.226Z,1021.92
2019-04-19T01:25:37.110Z,1021.93
2019-04-19T01:26:10.536Z,1021.96
2019-04-19T01:26:42.485Z,1021.95
2019-04-19T01:27:06.849Z,1021.98
2019-04-19T01:27:37.960Z,1021.97
2019-04-19T01:28:13.032Z,1021.97
2019-04-19T01:28:38.753Z,1021.96
2019-04-19T01:29:12.018Z,1021.99
2019-04-19T01:29:44.998Z,1021.95
2019-04-19T01:30:10.394Z,1021.98
2019-04-19T01:30:43.176Z,1021.98
2019-04-19T01:31:14.903Z,1021.97
2019-04-19T01:31:41.678Z,1021.97
2019-04-19T01:32:14.884Z,1021.99
2019-04-19T01:32:49.406Z,1021.95
2019-04-19T01:33:12.577Z,1022.01
2019-04-19T01:33:44.570Z,1022
2019-04-19T01:34:17.916Z,1022.02
2019-04-19T01:34:46.591Z,1021.97
2019-04-19T01:35:17.015Z,1021.96
2019-04-19T01:35:47.987Z,1021.98
2019-04-19T01:36:14.583Z,1021.97
2019-04-19T01:36:45.631Z,1022
2019-04-19T01:37:19.458Z,1021.98
2019-04-19T01:37:47.447Z,1022.01
2019-04-19T01:38:15.314Z,1021.97
2019-04-19T01:38:50.427Z,1022.01
2019-04-19T01:39:28.489Z,1021.98
2019-04-19T01:40:03.952Z,1021.97
2019-04-19T01:40:28.092Z,1021.99
2019-04-19T01:41:02.854Z,1021.97
2019-04-19T01:41:33.013Z,1021.98
2019-04-19T01:42:00.020Z,1022.01
2019-04-19T01:42:36.536Z,1021.98
2019-04-19T01:43:01.503Z,1022.01
2019-04-19T01:43:38.299Z,1021.97
2019-04-19T01:44:04.014Z,1021.96
2019-04-19T01:44:37.877Z,1021.98
2019-04-19T01:45:03.933Z,1021.99
2019-04-19T01:45:41.661Z,1021.98
2019-04-19T01:46:05.491Z,1021.98
2019-04-19T01:46:37.696Z,1021.96
2019-04-19T01:47:04.166Z,1021.95
2019-04-19T01:47:41.317Z,1021.94
2019-04-19T01:48:05.907Z,1021.96
2019-04-19T01:48:39.053Z,1021.95
2019-04-19T01:49:06.120Z,1021.96
2019-04-19T01:49:42.724Z,1021.94
2019-04-19T01:50:05.186Z,1022
2019-04-19T01:50:43.793Z,1022.02
2019-04-19T01:51:08.478Z,1021.99
2019-04-19T01:51:42.073Z,1021.96
2019-04-19T01:52:10.594Z,1021.96
2019-04-19T01:52:50.159Z,1022
2019-04-19T01:53:13.387Z,1021.99
2019-04-19T01:53:40.418Z,1021.98
2019-04-19T01:54:16.123Z,1022
2019-04-19T01:54:39.383Z,1022.02
2019-04-19T01:55:06.631Z,1021.98
2019-04-19T01:55:33.601Z,1022.01
2019-04-19T01:56:01.876Z,1022.02
2019-04-19T01:56:24.794Z,1022.01
2019-04-19T01:56:58.099Z,1022.03
2019-04-19T01:57:25.261Z,1022.07
2019-04-19T01:58:01.420Z,1022.04
2019-04-19T01:58:25.631Z,1022.05
2019-04-19T01:58:57.186Z,1022.04
2019-04-19T01:59:32.815Z,1022.06
2019-04-19T01:59:56.843Z,1022.05
2019-04-19T02:00:32.615Z,1022.04
2019-04-19T02:00:58.376Z,1022.04
2019-04-19T02:01:28.389Z,1022.09
2019-04-19T02:01:57.955Z,1022.05
2019-04-19T02:02:25.796Z,1022.07
2019-04-19T02:02:56.339Z,1022.08
2019-04-19T02:03:31.070Z,1022.07
2019-04-19T02:03:55.846Z,1022.02
2019-04-19T02:04:26.615Z,1022.05
2019-04-19T02:04:59.729Z,1022.04
2019-04-19T02:05:22.706Z,1022.06
2019-04-19T02:05:53.849Z,1022.07
2019-04-19T02:06:26.384Z,1022.07
2019-04-19T02:06:50.853Z,1022.08
2019-04-19T02:07:24.910Z,1022.05
2019-04-19T02:07:56.422Z,1022.08
2019-04-19T02:08:20.766Z,1022.08
2019-04-19T02:08:54.099Z,1022.11
2019-04-19T02:09:27.845Z,1022.08
2019-04-19T02:10:02.476Z,1022.06
2019-04-19T02:10:26.705Z,1022.08
2019-04-19T02:10:58.470Z,1022.08
2019-04-19T02:11:30.594Z,1022.07
2019-04-19T02:12:00.325Z,1022.07
2019-04-19T02:12:33.132Z,1022.09
2019-04-19T02:13:03.839Z,1022.11
2019-04-19T02:13:29.979Z,1022.09
2019-04-19T02:14:03.462Z,1022.08
2019-04-19T02:14:35.438Z,1022.1
2019-04-19T02:15:02.566Z,1022.11
2019-04-19T02:15:33.475Z,1022.15
2019-04-19T02:15:57.510Z,1022.13
2019-04-19T02:16:29.525Z,1022.13
2019-04-19T02:17:02.505Z,1022.13
2019-04-19T02:17:33.340Z,1022.16
2019-04-19T02:17:57.085Z,1022.15
2019-04-19T02:18:27.932Z,1022.16
2019-04-19T02:19:00.452Z,1022.16
2019-04-19T02:19:26.346Z,1022.17
2019-04-19T02:19:58.857Z,1022.16
2019-04-19T02:20:26.692Z,1022.16
2019-04-19T02:20:56.445Z,1022.16
2019-04-19T02:21:30.957Z,1022.18
2019-04-19T02:22:00.004Z,1022.18
2019-04-19T02:22:31.550Z,1022.22
2019-04-19T02:23:02.953Z,1022.22
2019-04-19T02:23:28.224Z,1022.2
2019-04-19T02:23:59.329Z,1022.2
2019-04-19T02:24:35.101Z,1022.18
2019-04-19T02:25:00.256Z,1022.19
2019-04-19T02:25:31.194Z,1022.22
2019-04-19T02:26:03.834Z,1022.2
2019-04-19T02:26:29.947Z,1022.23
2019-04-19T02:27:04.658Z,1022.19
2019-04-19T02:27:33.783Z,1022.22
2019-04-19T02:28:00.569Z,1022.21
2019-04-19T02:28:34.150Z,1022.2
2019-04-19T02:29:05.189Z,1022.21
2019-04-19T02:29:31.973Z,1022.21
2019-04-19T02:30:09.334Z,1022.22
2019-04-19T02:30:47.751Z,1022.21
2019-04-19T02:31:18.324Z,1022.24
2019-04-19T02:32:00.497Z,1022.2
2019-04-19T02:32:21.928Z,1022.2
2019-04-19T02:32:50.332Z,1022.24
2019-04-19T02:33:28.877Z,1022.19
2019-04-19T02:34:13.531Z,1022.21
2019-04-19T02:34:33.278Z,1022.24
2019-04-19T02:35:05.849Z,1022.21
2019-04-19T02:35:34.263Z,1022.2
2019-04-19T02:36:07.860Z,1022.21
2019-04-19T02:36:43.913Z,1022.21
2019-04-19T02:37:07.737Z,1022.21
2019-04-19T02:38:28.582Z,1022.25
2019-04-19T02:38:46.113Z,1022.25
2019-04-19T02:40:52.173Z,1022.27
2019-04-19T02:41:17.671Z,1022.28
2019-04-19T02:41:48.850Z,1022.27
2019-04-19T02:42:44.141Z,1022.27
2019-04-19T02:43:23.627Z,1022.28
2019-04-19T02:43:57.677Z,1022.22
2019-04-19T02:44:15.163Z,1022.27
2019-04-19T02:45:15.679Z,1022.28
2019-04-19T02:46:07.598Z,1022.23
2019-04-19T02:46:57.627Z,1022.27
2019-04-19T02:48:26.023Z,1022.29
2019-04-19T02:49:01.194Z,1022.28
2019-04-19T02:49:35.397Z,1022.27
2019-04-19T02:50:08.476Z,1022.29
2019-04-19T02:50:42.754Z,1022.29
2019-04-19T02:51:29.547Z,1022.29
2019-04-19T02:51:57.368Z,1022.27
2019-04-19T02:52:38.804Z,1022.29
2019-04-19T02:53:08.570Z,1022.29
2019-04-19T02:53:38.780Z,1022.3
2019-04-19T02:54:09.434Z,1022.32
2019-04-19T02:54:40.150Z,1022.31
2019-04-19T02:55:35.353Z,1022.3
2019-04-19T02:56:10.727Z,1022.31
2019-04-19T02:56:51.621Z,1022.33
2019-04-19T02:57:20.874Z,1022.3
2019-04-19T02:57:39.180Z,1022.32
2019-04-19T02:58:11.218Z,1022.35
2019-04-19T02:58:39.471Z,1022.33
2019-04-19T02:59:20.538Z,1022.32
2019-04-19T02:59:56.654Z,1022.31
2019-04-19T03:00:21.137Z,1022.32
2019-04-19T03:00:54.303Z,1022.28
2019-04-19T03:01:26.455Z,1022.27
2019-04-19T03:01:54.971Z,1022.29
2019-04-19T03:02:31.227Z,1022.29
2019-04-19T03:02:52.396Z,1022.31
2019-04-19T03:03:45.356Z,1022.35
2019-04-19T03:05:00.004Z,1022.36
2019-04-19T03:06:13.095Z,1022.32
2019-04-19T03:06:38.732Z,1022.33
2019-04-19T03:07:04.649Z,1022.36
2019-04-19T03:07:32.253Z,1022.34
2019-04-19T03:08:01.721Z,1022.39
2019-04-19T03:08:31.315Z,1022.36
2019-04-19T03:09:01.377Z,1022.34
2019-04-19T03:09:33.807Z,1022.35
2019-04-19T03:10:00.000Z,1022.33
2019-04-19T03:10:31.584Z,1022.34
2019-04-19T03:11:11.498Z,1022.39
2019-04-19T03:11:46.954Z,1022.35
2019-04-19T03:12:16.427Z,1022.34
2019-04-19T03:12:48.097Z,1022.35
2019-04-19T03:13:16.963Z,1022.36
2019-04-19T03:13:46.230Z,1022.35
2019-04-19T03:14:16.199Z,1022.39
2019-04-19T03:14:50.258Z,1022.4
2019-04-19T03:15:13.672Z,1022.39
2019-04-19T03:15:48.846Z,1022.41
2019-04-19T03:16:25.057Z,1022.4
2019-04-19T03:16:50.675Z,1022.38
2019-04-19T03:17:23.057Z,1022.43
2019-04-19T03:17:50.438Z,1022.4
2019-04-19T03:18:51.643Z,1022.43
2019-04-19T03:19:17.941Z,1022.39
2019-04-19T03:19:53.955Z,1022.42
2019-04-19T03:20:21.298Z,1022.4
2019-04-19T03:20:50.513Z,1022.43
2019-04-19T03:21:24.937Z,1022.41
2019-04-19T03:21:55.846Z,1022.39
2019-04-19T03:22:27.960Z,1022.43
2019-04-19T03:22:58.199Z,1022.39
2019-04-19T03:23:25.672Z,1022.4
2019-04-19T03:23:59.251Z,1022.46
2019-04-19T03:24:26.752Z,1022.43
2019-04-19T03:25:06.044Z,1022.42
2019-04-19T03:25:27.445Z,1022.43
2019-04-19T03:25:58.819Z,1022.44
2019-04-19T03:26:30.427Z,1022.45
2019-04-19T03:26:59.944Z,1022.47
2019-04-19T03:27:25.222Z,1022.47
2019-04-19T03:27:59.165Z,1022.45
2019-04-19T03:28:28.746Z,1022.46
2019-04-19T03:28:52.985Z,1022.43
2019-04-19T03:29:27.469Z,1022.45
2019-04-19T03:30:01.038Z,1022.47
2019-04-19T03:30:41.780Z,1022.48
2019-04-19T03:31:22.619Z,1022.46
2019-04-19T03:31:58.567Z,1022.48
2019-04-19T03:32:34.577Z,1022.51
2019-04-19T03:33:04.058Z,1022.46
2019-04-19T03:33:24.688Z,1022.5
2019-04-19T03:34:18.305Z,1022.48
2019-04-19T03:34:56.185Z,1022.49
2019-04-19T03:35:10.698Z,1022.49
2019-04-19T03:35:53.740Z,1022.48
2019-04-19T03:36:19.576Z,1022.5
2019-04-19T03:36:47.056Z,1022.48
2019-04-19T03:37:20.110Z,1022.48
2019-04-19T03:38:23.706Z,1022.47
2019-04-19T03:38:46.828Z,1022.48
2019-04-19T03:39:36.383Z,1022.53
2019-04-19T03:40:05.860Z,1022.49
2019-04-19T03:40:55.757Z,1022.47
2019-04-19T03:41:39.994Z,1022.45
2019-04-19T03:42:27.051Z,1022.44
2019-04-19T03:42:54.029Z,1022.47
2019-04-19T03:43:31.212Z,1022.47
2019-04-19T03:43:56.471Z,1022.49
2019-04-19T03:44:24.931Z,1022.49
2019-04-19T03:45:01.360Z,1022.51
2019-04-19T03:45:28.545Z,1022.47
2019-04-19T03:46:01.569Z,1022.48
2019-04-19T03:46:25.932Z,1022.49
2019-04-19T03:47:03.853Z,1022.5
2019-04-19T03:47:27.666Z,1022.54
2019-04-19T03:48:04.203Z,1022.51
2019-04-19T03:48:32.537Z,1022.51
2019-04-19T03:48:55.957Z,1022.48
2019-04-19T03:49:44.669Z,1022.5
2019-04-19T03:50:02.883Z,1022.5
2019-04-19T03:50:31.605Z,1022.53
2019-04-19T03:51:08.465Z,1022.54
2019-04-19T03:51:37.882Z,1022.56
2019-04-19T03:52:07.999Z,1022.54
2019-04-19T03:52:36.764Z,1022.51
2019-04-19T03:53:05.622Z,1022.54
2019-04-19T03:53:44.799Z,1022.55
2019-04-19T03:54:05.522Z,1022.51
2019-04-19T03:54:32.458Z,1022.56
2019-04-19T03:55:08.626Z,1022.57
2019-04-19T03:55:35.566Z,1022.54
2019-04-19T03:56:09.162Z,1022.52
2019-04-19T03:56:37.571Z,1022.5
2019-04-19T03:57:04.106Z,1022.54
2019-04-19T03:57:31.097Z,1022.57
2019-04-19T03:57:57.836Z,1022.54
2019-04-19T03:58:23.946Z,1022.52
2019-04-19T03:58:52.924Z,1022.49
2019-04-19T03:59:22.356Z,1022.54
2019-04-19T03:59:49.973Z,1022.54
2019-04-19T04:00:17.912Z,1022.57
2019-04-19T04:00:47.833Z,1022.57
2019-04-19T04:01:19.015Z,1022.56
2019-04-19T04:01:53.085Z,1022.55
2019-04-19T04:02:24.378Z,1022.51
2019-04-19T04:02:51.229Z,1022.56
2019-04-19T04:03:26.086Z,1022.54
2019-04-19T04:03:51.418Z,1022.56
2019-04-19T04:04:25.217Z,1022.59
2019-04-19T04:04:57.055Z,1022.57
2019-04-19T04:05:22.711Z,1022.58
2019-04-19T04:05:53.062Z,1022.57
2019-04-19T04:06:27.278Z,1022.55
2019-04-19T04:06:50.514Z,1022.63
2019-04-19T04:07:23.708Z,1022.59
2019-04-19T04:07:56.809Z,1022.58
2019-04-19T04:08:24.587Z,1022.61
2019-04-19T04:08:56.846Z,1022.63
2019-04-19T04:09:24.839Z,1022.62
2019-04-19T04:09:55.826Z,1022.64
2019-04-19T04:10:28.931Z,1022.6
2019-04-19T04:10:54.162Z,1022.56
2019-04-19T04:11:24.693Z,1022.6
2019-04-19T04:12:00.934Z,1022.6
2019-04-19T04:12:32.150Z,1022.64
2019-04-19T04:12:59.405Z,1022.61
2019-04-19T04:13:32.458Z,1022.63
2019-04-19T04:14:07.183Z,1022.66
2019-04-19T04:14:34.269Z,1022.65
2019-04-19T04:15:06.896Z,1022.65
2019-04-19T04:15:41.423Z,1022.65
2019-04-19T04:16:07.528Z,1022.64
2019-04-19T04:16:35.459Z,1022.65
2019-04-19T04:16:56.909Z,1022.66
2019-04-19T04:17:26.842Z,1022.67
2019-04-19T04:17:56.377Z,1022.69
2019-04-19T04:18:25.700Z,1022.65
2019-04-19T04:18:55.353Z,1022.65
2019-04-19T04:19:24.964Z,1022.66
2019-04-19T04:19:54.597Z,1022.69
2019-04-19T04:20:24.311Z,1022.69
2019-04-19T04:20:57.602Z,1022.69
2019-04-19T04:21:28.195Z,1022.68
2019-04-19T04:21:54.272Z,1022.7
2019-04-19T04:22:26.429Z,1022.69
2019-04-19T04:22:51.164Z,1022.69
2019-04-19T04:23:27.054Z,1022.67
2019-04-19T04:23:59.838Z,1022.65
2019-04-19T04:24:29.095Z,1022.67
2019-04-19T04:24:58.123Z,1022.67
2019-04-19T04:25:26.591Z,1022.7
2019-04-19T04:25:59.021Z,1022.68
2019-04-19T04:26:31.145Z,1022.71
2019-04-19T04:26:59.987Z,1022.66
2019-04-19T04:27:31.385Z,1022.71
2019-04-19T04:28:01.523Z,1022.72
2019-04-19T04:28:32.416Z,1022.73
2019-04-19T04:29:01.639Z,1022.69
2019-04-19T04:29:27.772Z,1022.71
2019-04-19T04:30:01.964Z,1022.67
2019-04-19T04:30:29.516Z,1022.69
2019-04-19T04:31:05.465Z,1022.71
2019-04-19T04:31:31.520Z,1022.71
2019-04-19T04:32:01.147Z,1022.7
2019-04-19T04:32:36.914Z,1022.72
2019-04-19T04:33:03.495Z,1022.72
2019-04-19T04:33:35.651Z,1022.72
2019-04-19T04:34:03.405Z,1022.7
2019-04-19T04:34:37.327Z,1022.76
2019-04-19T04:35:10.295Z,1022.77
2019-04-19T04:35:40.862Z,1022.74
2019-04-19T04:36:16.595Z,1022.78
2019-04-19T04:36:44.952Z,1022.75
2019-04-19T04:37:12.295Z,1022.79
2019-04-19T04:37:40.468Z,1022.78
2019-04-19T04:38:05.566Z,1022.76
2019-04-19T04:38:32.595Z,1022.79
2019-04-19T04:38:56.568Z,1022.78
2019-04-19T04:39:26.597Z,1022.76
2019-04-19T04:39:55.585Z,1022.79
2019-04-19T04:40:24.020Z,1022.79
2019-04-19T04:40:54.705Z,1022.8
2019-04-19T04:41:27.639Z,1022.79
2019-04-19T04:42:07.719Z,1022.82
2019-04-19T04:42:33.530Z,1022.84
2019-04-19T04:43:08.511Z,1022.85
2019-04-19T04:43:37.649Z,1022.87
2019-04-19T04:44:13.254Z,1022.81
2019-04-19T04:44:42.942Z,1022.83
2019-04-19T04:45:18.168Z,1022.85
2019-04-19T04:45:45.953Z,1022.83
2019-04-19T04:46:20.840Z,1022.84
2019-04-19T04:46:52.015Z,1022.85
2019-04-19T04:47:19.118Z,1022.87
2019-04-19T04:47:42.927Z,1022.84
2019-04-19T04:48:11.569Z,1022.84
2019-04-19T04:48:48.176Z,1022.87
2019-04-19T04:49:21.694Z,1022.87
2019-04-19T04:49:53.371Z,1022.88
2019-04-19T04:50:16.770Z,1022.9
2019-04-19T04:50:50.366Z,1022.87
2019-04-19T04:51:19.406Z,1022.9
2019-04-19T04:51:47.724Z,1022.89
2019-04-19T04:52:09.535Z,1022.87
2019-04-19T04:52:36.976Z,1022.92
2019-04-19T04:53:01.737Z,1022.93
2019-04-19T04:53:32.047Z,1022.91
2019-04-19T04:54:01.818Z,1022.89
2019-04-19T04:54:29.286Z,1022.9
2019-04-19T04:54:59.304Z,1022.89
2019-04-19T04:55:28.333Z,1022.91
2019-04-19T04:56:02.169Z,1022.91
2019-04-19T04:56:33.316Z,1022.91
2019-04-19T04:57:05.747Z,1022.91
2019-04-19T04:57:38.249Z,1022.9
2019-04-19T04:58:02.687Z,1022.94
2019-04-19T04:58:34.152Z,1022.93
2019-04-19T04:59:06.024Z,1022.91
2019-04-19T04:59:34.587Z,1022.92
2019-04-19T05:00:04.570Z,1022.96
2019-04-19T05:00:38.353Z,1022.95
2019-04-19T05:01:08.082Z,1022.94
2019-04-19T05:01:41.596Z,1022.96
2019-04-19T05:02:08.005Z,1022.99
2019-04-19T05:02:44.878Z,1023.01
2019-04-19T05:03:16.472Z,1022.94
2019-04-19T05:03:48.014Z,1022.97
2019-04-19T05:04:18.357Z,1023.01
2019-04-19T05:04:43.153Z,1023.01
2019-04-19T05:05:19.323Z,1023
2019-04-19T05:05:46.747Z,1023.02
2019-04-19T05:06:21.494Z,1023.04
2019-04-19T05:06:54.140Z,1023.03
2019-04-19T05:07:21.938Z,1023.02
2019-04-19T05:07:56.615Z,1023.01
2019-04-19T05:08:24.033Z,1023.05
2019-04-19T05:08:53.670Z,1023.05
2019-04-19T05:09:27.756Z,1023.07
2019-04-19T05:09:52.960Z,1023.07
2019-04-19T05:10:24.586Z,1023.07
2019-04-19T05:10:56.505Z,1023.08
2019-04-19T05:11:24.234Z,1023.09
2019-04-19T05:12:02.688Z,1023.08
2019-04-19T05:12:36.243Z,1023.12
2019-04-19T05:13:10.265Z,1023.08
2019-04-19T05:13:43.160Z,1023.07
2019-04-19T05:14:00.184Z,1023.11
2019-04-19T05:14:27.297Z,1023.11
2019-04-19T05:14:55.758Z,1023.13
2019-04-19T05:15:41.475Z,1023.13
2019-04-19T05:15:57.650Z,1023.14
2019-04-19T05:16:50.739Z,1023.07
2019-04-19T05:17:11.952Z,1023.1
2019-04-19T05:17:38.882Z,1023.15
2019-04-19T05:18:11.652Z,1023.11
2019-04-19T05:18:34.332Z,1023.15
2019-04-19T05:19:03.381Z,1023.14
2019-04-19T05:19:40.239Z,1023.14
2019-04-19T05:20:09.019Z,1023.14
2019-04-19T05:20:31.371Z,1023.13
2019-04-19T05:20:55.334Z,1023.11
2019-04-19T05:21:31.832Z,1023.16
2019-04-19T05:22:04.354Z,1023.13
2019-04-19T05:22:29.010Z,1023.14
2019-04-19T05:23:02.583Z,1023.16
2019-04-19T05:23:31.598Z,1023.14
2019-04-19T05:24:08.649Z,1023.19
2019-04-19T05:24:44.109Z,1023.16
2019-04-19T05:25:18.961Z,1023.16
2019-04-19T05:25:39.759Z,1023.16
2019-04-19T05:26:22.864Z,1023.16
2019-04-19T05:27:14.606Z,1023.2
2019-04-19T05:27:45.375Z,1023.19
2019-04-19T05:28:12.237Z,1023.17
2019-04-19T05:28:40.594Z,1023.17
2019-04-19T05:29:05.943Z,1023.21
2019-04-19T05:29:33.279Z,1023.25
2019-04-19T05:29:57.570Z,1023.19
2019-04-19T05:30:34.295Z,1023.2
2019-04-19T05:31:00.318Z,1023.22
2019-04-19T05:31:31.750Z,1023.23
2019-04-19T05:32:03.801Z,1023.2
2019-04-19T05:32:30.024Z,1023.18
2019-04-19T05:33:03.356Z,1023.21
2019-04-19T05:33:42.499Z,1023.24
2019-04-19T05:34:14.557Z,1023.24
2019-04-19T05:34:45.025Z,1023.23
2019-04-19T05:35:11.750Z,1023.26
2019-04-19T05:35:47.417Z,1023.25
2019-04-19T05:36:17.614Z,1023.23
2019-04-19T05:36:42.695Z,1023.25
2019-04-19T05:37:11.379Z,1023.21
2019-04-19T05:37:43.483Z,1023.22
2019-04-19T05:38:12.128Z,1023.25
2019-04-19T05:38:47.438Z,1023.23
2019-04-19T05:39:17.056Z,1023.23
2019-04-19T05:39:48.047Z,1023.19
2019-04-19T05:40:15.038Z,1023.21
2019-04-19T05:40:42.817Z,1023.21
2019-04-19T05:41:07.836Z,1023.26
2019-04-19T05:41:43.393Z,1023.25
2019-04-19T05:42:10.412Z,1023.27
2019-04-19T05:42:44.505Z,1023.27
2019-04-19T05:43:21.041Z,1023.22
2019-04-19T05:44:54.765Z,1023.25
2019-04-19T05:45:32.184Z,1023.27
2019-04-19T05:45:57.778Z,1023.26
2019-04-19T05:46:27.954Z,1023.26
2019-04-19T05:47:04.401Z,1023.27
2019-04-19T05:47:18.211Z,1023.26
2019-04-19T05:47:42.704Z,1023.3
2019-04-19T05:48:16.529Z,1023.26
2019-04-19T05:48:42.032Z,1023.27
2019-04-19T05:49:19.252Z,1023.26
2019-04-19T05:49:50.472Z,1023.25
2019-04-19T05:50:25.354Z,1023.22
2019-04-19T05:50:51.285Z,1023.24
2019-04-19T05:51:27.373Z,1023.25
2019-04-19T05:51:59.350Z,1023.25
2019-04-19T05:52:22.473Z,1023.25
2019-04-19T05:52:51.220Z,1023.23
2019-04-19T05:53:16.382Z,1023.22
2019-04-19T05:53:44.588Z,1023.27
2019-04-19T05:54:10.521Z,1023.26
2019-04-19T05:54:37.177Z,1023.25
2019-04-19T05:55:06.416Z,1023.23
2019-04-19T05:55:35.386Z,1023.24
2019-04-19T05:56:04.865Z,1023.23
2019-04-19T05:56:32.931Z,1023.25
2019-04-19T05:57:22.081Z,1023.23
2019-04-19T05:57:49.810Z,1023.25
2019-04-19T05:58:14.028Z,1023.27
2019-04-19T05:58:47.962Z,1023.28
2019-04-19T05:59:12.595Z,1023.26
2019-04-19T05:59:47.219Z,1023.27
2019-04-19T06:00:20.327Z,1023.25
2019-04-19T06:00:46.855Z,1023.23
2019-04-19T06:01:23.413Z,1023.27
2019-04-19T06:01:49.669Z,1023.25
2019-04-19T06:02:15.446Z,1023.22
2019-04-19T06:02:47.675Z,1023.19
2019-04-19T06:03:14.533Z,1023.2
2019-04-19T06:03:50.063Z,1023.17
2019-04-19T06:04:20.815Z,1023.2
2019-04-19T06:05:00.653Z,1023.18
2019-04-19T06:05:25.164Z,1023.15
2019-04-19T06:06:00.780Z,1023.2
2019-04-19T06:06:31.025Z,1023.18
2019-04-19T06:06:56.315Z,1023.23
2019-04-19T06:07:26.320Z,1023.19
2019-04-19T06:07:53.708Z,1023.22
2019-04-19T06:08:18.968Z,1023.23
2019-04-19T06:08:42.502Z,1023.23
2019-04-19T06:09:11.156Z,1023.24
2019-04-19T06:09:39.315Z,1023.21
2019-04-19T06:10:10.861Z,1023.24
2019-04-19T06:10:46.398Z,1023.25
2019-04-19T06:11:07.962Z,1023.24
2019-04-19T06:11:41.258Z,1023.24
2019-04-19T06:12:16.265Z,1023.26
2019-04-19T06:12:41.796Z,1023.25
2019-04-19T06:13:13.898Z,1023.26
2019-04-19T06:13:43.866Z,1023.28
2019-04-19T06:14:31.583Z,1023.27
2019-04-19T06:15:07.900Z,1023.22
2019-04-19T06:15:36.392Z,1023.24
2019-04-19T06:16:05.508Z,1023.25
2019-04-19T06:16:30.186Z,1023.28
2019-04-19T06:16:57.981Z,1023.27
2019-04-19T06:17:30.314Z,1023.27
2019-04-19T06:18:04.980Z,1023.27
2019-04-19T06:18:31.407Z,1023.26
2019-04-19T06:18:58.154Z,1023.26
2019-04-19T06:19:34.900Z,1023.26
2019-04-19T06:20:07.331Z,1023.25